Latest Coastal Weather Observations for Bundaberg

IDQ60701

Issued at 10:21 am EST Tuesday 28 March 2017 (issued every 10 minutes, with the page automatically refreshed every 10 minutes)

About coastal observations | Map of coastal stations | Coastal observations for QLD | Marine services | Other Formats
Station Details ID: 039128 Name: BUNDABERG AERO Lat: -24.91 Lon: 152.32 Height: 30.82 m
Data from the previous 72 hours. | See also: Recent months at Bundaberg
Date/Time
EST
Temp
°C
Wind Pressure Rain since
9am
mm
Weather Cloud Vis
km
Sea
Height
m
Swell
Dir  Spd
kts
Gust
kts
hPa Trend Height
m
Period
s
Dir
28/10:01am 26.9 E 11 16 1012.7 - 0.0 - Partly cloudy 10 - - - -
28/10:00am 27.2 E 11 16 1012.7 - 0.0 - Partly cloudy 10 - - - -
28/09:42am 26.4 E 12 17 1012.9 - 0.0 - Partly cloudy 5 - - - -
28/09:30am 26.8 ESE 12 15 1012.9 - 0.0 - Partly cloudy 10 - - - -
28/09:00am 26.6 ESE 10 17 1012.7 - 10.6 - Cloudy 10 - - - -
28/08:56am 26.5 ESE 9 12 1012.8 - 10.6 - Partly cloudy 10 - - - -
28/08:37am 25.8 SE 9 11 1012.7 - 10.6 - Partly cloudy 10 - - - -
28/08:30am 25.7 SE 9 12 1012.6 - 10.6 - Partly cloudy 10 - - - -
28/08:00am 25.1 SSE 9 11 1012.1 - 10.6 - Partly cloudy 10 - - - -
28/07:30am 24.1 SE 8 9 1012.0 - 10.6 - Partly cloudy 10 - - - -
28/07:15am 23.9 SE 8 10 1011.7 - 10.6 - Partly cloudy 10 - - - -
28/07:02am 23.6 SE 7 9 1011.7 - 10.6 - Partly cloudy 5 - - - -
28/07:00am 23.6 SE 7 9 1011.7 - 10.4 - Partly cloudy 5 - - - -
28/06:59am 23.5 SE 7 10 1011.7 - 10.4 - Partly cloudy 5 - - - -
28/06:33am 23.4 SSE 9 14 1011.6 - 9.4 - Partly cloudy 6 - - - -
28/06:30am 23.3 SSE 8 14 1011.5 - 9.2 - Partly cloudy 7 - - - -
28/06:00am 23.2 SSE 7 9 1011.1 - 8.8 - Cloudy 10 - - - -
28/05:30am 23.1 SSE 6 8 1011.0 - 8.8 - Partly cloudy 10 - - - -
28/05:27am 23.1 SSE 6 8 1010.9 - 8.8 - Partly cloudy 10 - - - -
28/05:00am 23.2 SE 7 10 1010.8 - 8.8 - Partly cloudy 10 - - - -
28/04:53am 23.3 SE 8 10 1010.7 - 8.8 - Partly cloudy 10 - - - -
28/04:47am 23.2 SE 8 10 1010.6 - 8.8 - Partly cloudy 10 - - - -
28/04:30am 23.1 SE 8 10 1010.5 - 8.8 - Partly cloudy 3 - - - -
28/04:22am 23.2 SE 6 9 1010.5 - 7.2 - Partly cloudy 5 - - - -
28/04:18am 23.1 SE 6 9 1010.5 - 6.8 - Partly cloudy 10 - - - -
28/04:00am 23.0 SSE 7 10 1010.3 - 6.6 - Partly cloudy 10 - - - -
28/03:56am 23.0 SSE 7 9 1010.4 - 6.6 - Partly cloudy 10 - - - -
28/03:45am 23.1 SSE 6 10 1010.4 - 6.6 - Partly cloudy 5 - - - -
28/03:39am 23.1 SSE 6 10 1010.5 - 6.6 - Partly cloudy 10 - - - -
28/03:30am 23.1 SSE 7 10 1010.6 - 6.6 - Partly cloudy 10 - - - -
28/03:00am 23.3 SSE 8 11 1010.6 - 6.6 - Cloudy 10 - - - -
28/02:48am 23.3 SSE 8 11 1010.6 - 6.6 - Partly cloudy 10 - - - -
28/02:30am 23.4 SE 11 15 1010.8 - 6.6 - Partly cloudy 10 - - - -
28/02:17am 23.5 SE 10 13 1011.0 - 6.6 - Partly cloudy 10 - - - -
28/02:00am 23.4 SSE 10 13 1011.0 - 6.6 - Partly cloudy 10 - - - -
28/01:30am 23.5 SSE 8 11 1011.5 - 6.6 - Partly cloudy 10 - - - -
28/01:00am 23.5 SSE 10 15 1011.8 - 6.6 - Partly cloudy 10 - - - -
28/12:30am 23.6 SSE 10 15 1012.1 - 6.6 - Partly cloudy 10 - - - -
28/12:12am 23.7 SE 11 14 1012.2 - 6.6 - Partly cloudy 10 - - - -
28/12:05am 23.6 SSE 10 14 1012.2 - 6.4 - Partly cloudy 10 - - - -
28/12:00am 23.5 SE 11 14 1012.2 - 6.4 Showers Cloudy 8 - - - -
 
Date/Time
EST
Temp
°C
Wind Pressure Rain since
9am
mm
Weather Cloud Vis
km
Sea
Height
m
Swell
Dir  Spd
kts
Gust
kts
hPa Trend Height
m
Period
s
Dir
27/11:40pm 23.7 SE 12 19 1012.5 - 6.0 - Partly cloudy 3 - - - -
27/11:30pm 23.9 SSE 9 13 1012.4 - 5.2 - Partly cloudy 5 - - - -
27/11:00pm 23.9 SE 9 11 1012.5 - 5.2 - Partly cloudy 10 - - - -
27/10:30pm 24.0 SE 9 11 1012.8 - 5.2 - Partly cloudy 6 - - - -
27/10:27pm 24.1 SE 9 11 1012.9 - 5.2 - Partly cloudy 6 - - - -
27/10:11pm 24.1 SSE 7 10 1012.9 - 5.2 - Partly cloudy 10 - - - -
27/10:00pm 24.0 ESE 9 12 1013.0 - 5.0 - Partly cloudy 4 - - - -
27/09:50pm 24.0 ENE 9 12 1013.2 - 3.8 - Partly cloudy 4 - - - -
27/09:45pm 24.1 ESE 9 12 1013.1 - 3.0 - Partly cloudy 5 - - - -
27/09:30pm 24.4 SSE 8 11 1013.0 - 2.8 - Partly cloudy 10 - - - -
27/09:00pm 24.1 SSE 8 11 1013.2 - 2.8 Showers Cloudy 10 - - - -
27/08:55pm 24.2 SE 9 13 1013.2 - 2.8 - Partly cloudy 10 - - - -
27/08:30pm 22.9 E 15 22 1013.3 - 1.4 - Partly cloudy 4 - - - -
27/08:27pm 23.1 E 14 22 1013.3 - 1.2 - Partly cloudy 5 - - - -
27/08:00pm 25.6 SE 11 14 1012.8 - 0.0 - Partly cloudy 10 - - - -
27/07:30pm 25.8 SE 10 13 1012.4 - 0.0 - Partly cloudy 10 - - - -
27/07:00pm 26.0 SE 13 19 1012.0 - 0.0 - Partly cloudy 10 - - - -
27/06:30pm 26.1 SE 13 17 1011.7 - 0.0 - Partly cloudy 10 - - - -
27/06:00pm 26.4 ESE 15 22 1011.5 - 0.0 - Partly cloudy 10 - - - -
27/05:30pm 26.8 ESE 15 22 1011.2 - 0.0 - Partly cloudy 10 - - - -
27/05:00pm 27.1 ESE 17 22 1010.7 - 0.0 - Partly cloudy 10 - - - -
27/04:30pm 27.6 ESE 15 21 1010.5 - 0.0 - Partly cloudy 10 - - - -
27/04:00pm 27.9 ESE 16 22 1010.4 - 0.0 - Cloudy 10 - - - -
27/03:30pm 28.1 ESE 15 21 1010.5 - 0.0 - Partly cloudy 10 - - - -
27/03:00pm 29.0 ESE 17 22 1010.6 - 0.0 - Mostly cloudy 10 - - - -
27/02:30pm 29.6 ESE 16 22 1010.7 - 0.0 - Partly cloudy 10 - - - -
27/02:00pm 29.9 ESE 17 22 1010.9 - 0.0 - Partly cloudy 10 - - - -
27/01:30pm 30.3 E 16 20 1011.1 - 0.0 - Partly cloudy 10 - - - -
27/01:00pm 30.0 ESE 16 21 1011.4 - 0.0 - Partly cloudy 10 - - - -
27/12:30pm 30.0 ESE 16 22 1011.9 - 0.0 - Partly cloudy 10 - - - -
27/12:00pm 28.9 ESE 16 20 1012.4 - 0.0 - Mostly cloudy 10 - - - -
27/11:30am 29.8 ESE 15 22 1012.8 - 0.0 - Partly cloudy 10 - - - -
27/11:00am 28.7 ESE 15 21 1013.3 - 0.0 - Partly cloudy 10 - - - -
27/10:30am 28.7 ESE 15 20 1013.4 - 0.0 - Partly cloudy 10 - - - -
27/10:00am 28.8 ESE 15 19 1013.6 - 0.0 - Partly cloudy 10 - - - -
27/09:30am 28.6 ESE 15 20 1013.7 - 0.0 - Partly cloudy 10 - - - -
27/09:00am 27.2 SE 11 15 1013.8 - 0.0 - Cloudy 10 - - - -
27/08:30am 26.6 SE 11 15 1013.6 - 0.0 - - 10 - - - -
27/08:00am 25.4 SSE 11 13 1013.5 - 0.0 - - 10 - - - -
27/07:30am 24.3 SSE 8 11 1013.3 - 0.0 - - 10 - - - -
27/07:00am 23.0 SSE 7 10 1013.1 - 0.0 - Partly cloudy 10 - - - -
27/06:30am 22.6 SSE 8 10 1012.9 - 0.0 - Partly cloudy 10 - - - -
27/06:00am 22.4 SSE 8 10 1012.6 - 0.0 - - 10 - - - -
27/05:30am 22.3 SSE 7 10 1012.2 - 0.0 - Partly cloudy 10 - - - -
27/05:00am 22.4 SSE 6 9 1011.9 - 0.0 - Partly cloudy 10 - - - -
27/04:30am 22.4 SSE 7 10 1011.9 - 0.0 - Partly cloudy 10 - - - -
27/04:00am 22.4 SSE 6 9 1011.7 - 0.0 - - 10 - - - -
27/03:30am 22.4 SSE 7 9 1011.8 - 0.0 - Partly cloudy 10 - - - -
27/03:00am 22.5 SSE 7 10 1012.0 - 0.0 - Partly cloudy 10 - - - -
27/02:30am 22.5 SSE 6 8 1012.1 - 0.0 - Partly cloudy 10 - - - -
27/02:00am 22.5 SSE 6 9 1012.3 - 0.0 - - 10 - - - -
27/01:30am 22.5 SSE 5 7 1012.6 - 0.0 - - 10 - - - -
27/01:00am 22.7 SSE 5 7 1012.9 - 0.0 - - 10 - - - -
27/12:30am 22.9 SSE 7 9 1013.2 - 0.0 - Partly cloudy 10 - - - -
27/12:00am 23.0 SSE 6 8 1013.6 - 0.0 - Mostly clear 10 - - - -
 
Date/Time
EST
Temp
°C
Wind Pressure Rain since
9am
mm
Weather Cloud Vis
km
Sea
Height
m
Swell
Dir  Spd
kts
Gust
kts
hPa Trend Height
m
Period
s
Dir
26/11:30pm 23.3 SSE 5 6 1013.9 - 0.0 - - 10 - - - -
26/11:00pm 23.4 SSE 5 6 1014.1 - 0.0 - - 10 - - - -
26/10:30pm 23.8 SSE 5 8 1014.2 - 0.0 - Partly cloudy 10 - - - -
26/10:00pm 24.3 SSE 6 9 1014.5 - 0.0 - Partly cloudy 10 - - - -
26/09:30pm 24.5 SE 6 8 1014.5 - 0.0 - Partly cloudy 10 - - - -
26/09:00pm 24.1 SE 5 7 1014.3 - 0.0 - Partly cloudy 10 - - - -
26/08:30pm 24.1 SE 7 8 1014.0 - 0.0 - - 10 - - - -
26/08:00pm 24.3 SE 7 8 1013.7 - 0.0 - Partly cloudy 10 - - - -
26/07:30pm 24.5 SE 7 8 1013.3 - 0.0 - - 10 - - - -
26/07:00pm 24.8 SE 7 10 1012.8 - 0.0 - - 10 - - - -
26/06:30pm 25.3 SE 9 11 1012.6 - 0.0 - Partly cloudy 10 - - - -
26/06:00pm 25.8 ESE 9 12 1012.2 - 0.0 - Mostly clear 10 - - - -
26/05:30pm 26.4 SE 11 14 1011.8 - 0.0 - Partly cloudy 10 - - - -
26/05:00pm 26.9 ESE 11 14 1011.5 - 0.0 - Partly cloudy 10 - - - -
26/04:30pm 27.3 ESE 11 14 1011.2 - 0.0 - - 10 - - - -
26/04:00pm 27.8 ESE 11 16 1011.1 - 0.0 - Partly cloudy 10 - - - -
26/03:30pm 28.3 ESE 11 16 1011.2 - 0.0 - Partly cloudy 10 - - - -
26/03:00pm 28.4 ESE 11 13 1011.3 - 0.0 - Mostly clear 10 - - - -
26/02:30pm 28.1 SE 12 15 1011.3 - 0.0 - Partly cloudy 10 - - - -
26/02:00pm 28.5 ESE 12 16 1011.6 - 0.0 - - 10 - - - -
26/01:30pm 28.7 ESE 11 14 1011.9 - 0.0 - - 10 - - - -
26/01:00pm 28.5 ESE 11 17 1012.0 - 0.0 - - 10 - - - -
26/12:30pm 28.9 ESE 10 14 1012.4 - 0.0 - - 10 - - - -
26/12:00pm 28.4 ESE 10 16 1013.0 - 0.0 - Mostly clear 10 - - - -
26/11:30am 28.1 ESE 10 14 1013.5 - 0.0 - Partly cloudy 10 - - - -
26/11:00am 27.6 SE 9 11 1013.5 - 0.0 - Partly cloudy 10 - - - -
26/10:30am 27.1 SE 11 14 1014.1 - 0.0 - Partly cloudy 10 - - - -
26/10:16am 27.0 SE 12 15 1014.0 - 0.0 - Partly cloudy 10 - - - -
26/10:00am 26.8 SE 11 14 1014.0 - 0.0 - Partly cloudy 10 - - - -
26/09:30am 25.6 SSE 8 12 1014.3 - 0.0 - Partly cloudy 10 - - - -
26/09:09am 25.6 SSE 7 11 1014.4 - 0.0 - Partly cloudy 10 - - - -
26/09:00am 25.3 SSE 8 11 1014.5 - 0.2 - Mostly clear 10 - - - -
26/08:33am 25.2 S 8 11 1014.1 - 0.2 - Partly cloudy 10 - - - -
26/08:30am 24.7 S 8 11 1014.1 - 0.2 - Partly cloudy 10 - - - -
26/08:20am 24.3 SSE 8 12 1014.1 - 0.2 - Partly cloudy 10 - - - -
26/08:00am 23.8 SSE 7 10 1014.1 - 0.2 - Partly cloudy 10 - - - -
26/07:30am 23.3 SSE 7 10 1013.6 - 0.2 - Partly cloudy 10 - - - -
26/07:00am 22.5 SSE 7 10 1013.7 - 0.2 - Partly cloudy 10 - - - -
26/06:30am 22.4 S 5 7 1013.4 - 0.2 - Partly cloudy 10 - - - -
26/06:00am 22.4 SSE 6 8 1013.1 - 0.2 Drizzle Cloudy 10 - - - -
26/05:30am 22.1 SSE 6 8 1012.5 - 0.2 - Partly cloudy 10 - - - -
26/05:00am 22.1 S 5 7 1012.3 - 0.2 - Partly cloudy 10 - - - -
26/04:30am 22.1 SSE 6 9 1012.0 - 0.2 - Partly cloudy 10 - - - -
26/04:00am 22.2 S 7 9 1011.7 - 0.2 - - 10 - - - -
26/03:30am 22.2 SSE 7 9 1011.9 - 0.2 - Partly cloudy 10 - - - -
26/03:00am 22.1 S 7 9 1012.0 - 0.2 - Mostly clear 10 - - - -
26/02:30am 22.1 S 7 11 1012.3 - 0.2 - Partly cloudy 10 - - - -
26/02:00am 22.2 S 6 8 1012.4 - 0.2 - - 10 - - - -
26/01:30am 22.3 SSE 6 9 1012.8 - 0.2 - - 10 - - - -
26/01:00am 22.5 SSE 7 9 1013.3 - 0.2 - Partly cloudy 10 - - - -
26/12:30am 22.7 SSE 6 9 1013.6 - 0.2 - Partly cloudy 10 - - - -
26/12:13am 22.9 S 7 9 1013.8 - 0.2 - Partly cloudy 10 - - - -
26/12:00am 23.1 SSE 7 10 1014.0 - 0.2 Showers Cloudy 4 - - - -
 
Date/Time
EST
Temp
°C
Wind Pressure Rain since
9am
mm
Weather Cloud Vis
km
Sea
Height
m
Swell
Dir  Spd
kts
Gust
kts
hPa Trend Height
m
Period
s
Dir
25/11:56pm 23.2 SSE 7 10 1014.2 - 0.2 - Partly cloudy 5 - - - -
25/11:30pm 23.3 SSE 6 9 1014.5 - 0.0 - Partly cloudy 10 - - - -
25/11:00pm 23.4 SSE 6 9 1014.7 - 0.0 - Partly cloudy 10 - - - -
25/10:30pm 23.5 SSE 8 12 1014.8 - 0.0 - Partly cloudy 10 - - - -
25/10:00pm 23.6 S 6 9 1014.7 - 0.0 - Partly cloudy 10 - - - -
25/09:30pm 23.4 SSE 6 9 1014.7 - 0.0 - Partly cloudy 10 - - - -
25/09:00pm 23.5 SSE 7 9 1014.5 - 0.0 Showers Cloudy 10 - - - -
25/08:30pm 23.5 SSE 8 10 1014.3 - 0.0 - Partly cloudy 10 - - - -
25/08:00pm 23.9 SSE 7 11 1014.2 - 0.0 - Partly cloudy 10 - - - -
25/07:30pm 23.9 SSE 6 8 1014.0 - 0.0 - Partly cloudy 10 - - - -
25/07:00pm 23.9 SSE 8 11 1013.7 - 0.0 - - 10 - - - -
25/06:30pm 24.1 SSE 7 9 1013.3 - 0.0 - - 10 - - - -
25/06:00pm 24.5 SSE 8 12 1013.3 - 0.0 - Cloudy 10 - - - -
25/05:30pm 24.7 SSE 11 16 1013.1 - 0.0 - - 10 - - - -
25/05:00pm 24.6 SSE 10 15 1012.6 - 0.0 - Partly cloudy 10 - - - -
25/04:30pm 28.2 ESE 14 17 1012.0 - 0.0 - Partly cloudy 10 - - - -
25/04:00pm 28.9 ESE 15 20 1011.8 - 0.0 - Partly cloudy 10 - - - -
25/03:30pm 29.2 ESE 14 18 1011.5 - 0.0 - Partly cloudy 10 - - - -
25/03:00pm 29.2 ESE 14 18 1011.7 - 0.0 - Mostly clear 10 - - - -
25/02:30pm 29.4 ESE 11 17 1011.9 - 0.0 - Partly cloudy 10 - - - -
25/02:00pm 29.0 ESE 14 20 1012.1 - 0.0 - Partly cloudy 10 - - - -
25/01:30pm 29.4 E 14 18 1012.3 - 0.0 - Partly cloudy 10 - - - -
25/01:00pm 28.5 ESE 15 21 1012.6 - 0.0 - Partly cloudy 10 - - - -
25/12:30pm 28.9 ESE 17 22 1012.9 - 0.0 - Partly cloudy 10 - - - -
25/12:00pm 29.1 E 15 20 1013.5 - 0.0 - Partly cloudy 10 - - - -
25/11:30am 28.9 ESE 16 19 1013.7 - 0.0 - Partly cloudy 10 - - - -
25/11:00am 28.5 SE 13 17 1014.2 - 0.0 - Partly cloudy 10 - - - -
25/10:30am 28.2 SE 12 17 1014.4 - 0.0 - Partly cloudy 10 - - - -

Other Formats:

Comma delimited format used in spreadsheet applications
http://www.bom.gov.au/fwo/IDQ60701/IDQ60701.94387.axf

JavaScript Object Notation format (JSON) in row-major order
http://www.bom.gov.au/fwo/IDQ60701/IDQ60701.94387.json